In Rescue
 
Open Full Screen Window  High Contrast Mode
Wind Gusting 26 knots
21
March 01, 2024 1:42 PM CST
Weather Information
Wind Direction
  190 °
Wind Speed
  21 kt (24 mph)
Wind Gust
  26 kt (30 mph)
Altimeter
29.80 in
Visibility
10 SM
Temperature
13° C
55° F
Dewpoint
01° C
34° F
Humidity
44%
Sky Condition
Clear
VFR

METAR KOWA 011942Z AUTO 19021G26KT 10SM CLR 13/01 A2980 RMK AO2

FAA Disclaimer: The data displayed is for advisory purposes only and is not to be used for flight planning or operations.